West Springfield, New Hampshire
Current Conditions -  °F | °C
As of 1:53 PM on Thursday 30 Oct 2014 (Local Time) from KLEB Reporting Station
Broken Clouds Broken Clouds  
Wind Chill: 52°   Ceiling: 4800
Heat Index: 52°   Visibility: 10mi
Dew Point: 36°   Wind: 9mph
Humidity: 54%   Direction: 320°NW
Pressure: 29.92"   Gusts: NA
Location:  43.4929°N, 72.037°W
Report Text: KLEB 301753Z 32008KT 10SM SCT036 BKN048 11/02 A2992 RMK AO2 RAE10 SLP135 P0000 60000 T01110022 10122 20050 58005
Loading
Personal Weather Stations






























Interactive Weather Map
Tropical Storm Tracking
New forecast layout! Learn more

10-Day Weather Forecast

Advertisements
Track Severe Weather on mobile